sensor_id;sensor_type;location;lat;lon;timestamp;temperature;humidity
29363;DHT22;16349;53.672;10.014;2023-04-25T00:01:03;8.10;99.90
29363;DHT22;16349;53.672;10.014;2023-04-25T00:03:30;8.10;99.90
29363;DHT22;16349;53.672;10.014;2023-04-25T00:05:58;8.10;99.90
29363;DHT22;16349;53.672;10.014;2023-04-25T00:08:28;8.10;99.90
29363;DHT22;16349;53.672;10.014;2023-04-25T00:10:56;8.00;99.90
29363;DHT22;16349;53.672;10.014;2023-04-25T00:13:24;8.00;99.90
29363;DHT22;16349;53.672;10.014;2023-04-25T00:15:51;8.00;99.90
29363;DHT22;16349;53.672;10.014;2023-04-25T00:18:19;7.90;99.90
29363;DHT22;16349;53.672;10.014;2023-04-25T00:20:45;7.90;99.90
29363;DHT22;16349;53.672;10.014;2023-04-25T00:23:13;7.80;99.90
29363;DHT22;16349;53.672;10.014;2023-04-25T00:25:43;7.80;99.90
29363;DHT22;16349;53.672;10.014;2023-04-25T00:28:11;7.80;99.90
29363;DHT22;16349;53.672;10.014;2023-04-25T00:30:39;7.80;99.90
29363;DHT22;16349;53.672;10.014;2023-04-25T00:33:06;7.80;99.90
29363;DHT22;16349;53.672;10.014;2023-04-25T00:35:34;7.80;99.90
29363;DHT22;16349;53.672;10.014;2023-04-25T00:38:02;7.80;99.90
29363;DHT22;16349;53.672;10.014;2023-04-25T00:40:29;7.80;99.90
29363;DHT22;16349;53.672;10.014;2023-04-25T00:42:56;7.80;99.90
29363;DHT22;16349;53.672;10.014;2023-04-25T00:45:27;7.90;99.90
29363;DHT22;16349;53.672;10.014;2023-04-25T00:47:55;7.80;99.90
29363;DHT22;16349;53.672;10.014;2023-04-25T00:50:23;7.80;99.90
29363;DHT22;16349;53.672;10.014;2023-04-25T00:52:51;7.80;99.90
29363;DHT22;16349;53.672;10.014;2023-04-25T00:55:19;7.80;99.90
29363;DHT22;16349;53.672;10.014;2023-04-25T00:57:46;7.80;99.90
29363;DHT22;16349;53.672;10.014;2023-04-25T01:00:14;7.80;99.90
29363;DHT22;16349;53.672;10.014;2023-04-25T01:02:44;7.70;99.90
29363;DHT22;16349;53.672;10.014;2023-04-25T01:05:11;7.70;99.90
29363;DHT22;16349;53.672;10.014;2023-04-25T01:07:39;7.70;99.90
29363;DHT22;16349;53.672;10.014;2023-04-25T01:10:07;7.70;99.90
29363;DHT22;16349;53.672;10.014;2023-04-25T01:12:34;7.70;99.90
29363;DHT22;16349;53.672;10.014;2023-04-25T01:15:02;7.70;99.90
29363;DHT22;16349;53.672;10.014;2023-04-25T01:17:30;7.60;99.90
29363;DHT22;16349;53.672;10.014;2023-04-25T01:19:58;7.60;99.90
29363;DHT22;16349;53.672;10.014;2023-04-25T01:22:27;7.60;99.90
29363;DHT22;16349;53.672;10.014;2023-04-25T01:24:54;7.60;99.90
29363;DHT22;16349;53.672;10.014;2023-04-25T01:27:21;7.60;99.90
29363;DHT22;16349;53.672;10.014;2023-04-25T01:29:49;7.60;99.90
29363;DHT22;16349;53.672;10.014;2023-04-25T01:32:17;7.50;99.90
29363;DHT22;16349;53.672;10.014;2023-04-25T01:34:45;7.50;99.90
29363;DHT22;16349;53.672;10.014;2023-04-25T01:37:35;7.50;99.90
29363;DHT22;16349;53.672;10.014;2023-04-25T01:40:04;7.50;99.90
29363;DHT22;16349;53.672;10.014;2023-04-25T01:42:32;7.50;99.90
29363;DHT22;16349;53.672;10.014;2023-04-25T01:45:00;7.50;99.90
29363;DHT22;16349;53.672;10.014;2023-04-25T01:47:27;7.40;99.90
29363;DHT22;16349;53.672;10.014;2023-04-25T01:49:54;7.40;99.90
29363;DHT22;16349;53.672;10.014;2023-04-25T01:52:21;7.40;99.90
29363;DHT22;16349;53.672;10.014;2023-04-25T01:54:51;7.40;99.90
29363;DHT22;16349;53.672;10.014;2023-04-25T01:57:18;7.30;99.90
29363;DHT22;16349;53.672;10.014;2023-04-25T01:59:45;7.30;99.90
29363;DHT22;16349;53.672;10.014;2023-04-25T02:02:20;7.30;99.90
29363;DHT22;16349;53.672;10.014;2023-04-25T02:04:47;7.30;99.90
29363;DHT22;16349;53.672;10.014;2023-04-25T02:07:14;7.30;99.90
29363;DHT22;16349;53.672;10.014;2023-04-25T02:09:52;7.30;99.90
29363;DHT22;16349;53.672;10.014;2023-04-25T02:12:22;7.30;99.90
29363;DHT22;16349;53.672;10.014;2023-04-25T02:15:14;7.20;99.90
29363;DHT22;16349;53.672;10.014;2023-04-25T02:17:48;7.20;99.90
29363;DHT22;16349;53.672;10.014;2023-04-25T02:20:15;7.20;99.90
29363;DHT22;16349;53.672;10.014;2023-04-25T02:22:43;7.20;99.90
29363;DHT22;16349;53.672;10.014;2023-04-25T02:25:12;7.20;99.90
29363;DHT22;16349;53.672;10.014;2023-04-25T02:27:38;7.20;99.90
29363;DHT22;16349;53.672;10.014;2023-04-25T02:30:07;7.10;99.90
29363;DHT22;16349;53.672;10.014;2023-04-25T02:32:34;7.10;99.90
29363;DHT22;16349;53.672;10.014;2023-04-25T02:35:01;7.10;99.90
29363;DHT22;16349;53.672;10.014;2023-04-25T02:37:30;7.10;99.90
29363;DHT22;16349;53.672;10.014;2023-04-25T02:39:57;7.10;99.90
29363;DHT22;16349;53.672;10.014;2023-04-25T02:42:25;7.00;99.90
29363;DHT22;16349;53.672;10.014;2023-04-25T02:44:53;7.00;99.90
29363;DHT22;16349;53.672;10.014;2023-04-25T02:47:20;7.00;99.90
29363;DHT22;16349;53.672;10.014;2023-04-25T02:49:49;7.00;99.90
29363;DHT22;16349;53.672;10.014;2023-04-25T02:52:16;7.00;99.90
29363;DHT22;16349;53.672;10.014;2023-04-25T02:54:47;7.00;99.90
29363;DHT22;16349;53.672;10.014;2023-04-25T02:57:15;7.00;99.90
29363;DHT22;16349;53.672;10.014;2023-04-25T02:59:43;6.90;99.90
29363;DHT22;16349;53.672;10.014;2023-04-25T03:02:10;6.90;99.90
29363;DHT22;16349;53.672;10.014;2023-04-25T03:04:37;6.90;99.90
29363;DHT22;16349;53.672;10.014;2023-04-25T03:07:04;6.80;99.90
29363;DHT22;16349;53.672;10.014;2023-04-25T03:09:31;6.80;99.90
29363;DHT22;16349;53.672;10.014;2023-04-25T03:11:58;6.80;99.90
29363;DHT22;16349;53.672;10.014;2023-04-25T03:14:24;6.80;99.90
29363;DHT22;16349;53.672;10.014;2023-04-25T03:16:53;6.70;99.90
29363;DHT22;16349;53.672;10.014;2023-04-25T03:19:20;6.70;99.90
29363;DHT22;16349;53.672;10.014;2023-04-25T03:21:47;6.70;99.90
29363;DHT22;16349;53.672;10.014;2023-04-25T03:24:14;6.60;99.90
29363;DHT22;16349;53.672;10.014;2023-04-25T03:26:42;6.60;99.90
29363;DHT22;16349;53.672;10.014;2023-04-25T03:29:08;6.50;99.90
29363;DHT22;16349;53.672;10.014;2023-04-25T03:31:37;6.50;99.90
29363;DHT22;16349;53.672;10.014;2023-04-25T03:34:05;6.40;99.90
29363;DHT22;16349;53.672;10.014;2023-04-25T03:36:32;6.40;99.90
29363;DHT22;16349;53.672;10.014;2023-04-25T03:38:59;6.30;99.90
29363;DHT22;16349;53.672;10.014;2023-04-25T03:41:28;6.30;99.90
29363;DHT22;16349;53.672;10.014;2023-04-25T03:44:00;6.30;99.90
29363;DHT22;16349;53.672;10.014;2023-04-25T03:46:27;6.20;99.90
29363;DHT22;16349;53.672;10.014;2023-04-25T03:48:55;6.20;99.90
29363;DHT22;16349;53.672;10.014;2023-04-25T03:51:29;6.10;99.90
29363;DHT22;16349;53.672;10.014;2023-04-25T03:53:56;6.10;99.90
29363;DHT22;16349;53.672;10.014;2023-04-25T03:56:30;6.10;99.90
29363;DHT22;16349;53.672;10.014;2023-04-25T03:59:04;6.00;99.90
29363;DHT22;16349;53.672;10.014;2023-04-25T04:01:32;6.00;99.90
29363;DHT22;16349;53.672;10.014;2023-04-25T04:03:58;6.00;99.90
29363;DHT22;16349;53.672;10.014;2023-04-25T04:06:26;6.00;99.90
29363;DHT22;16349;53.672;10.014;2023-04-25T04:09:03;6.00;99.90
29363;DHT22;16349;53.672;10.014;2023-04-25T04:11:33;6.00;99.90
29363;DHT22;16349;53.672;10.014;2023-04-25T04:14:02;6.00;99.90
29363;DHT22;16349;53.672;10.014;2023-04-25T04:16:29;6.00;99.90
29363;DHT22;16349;53.672;10.014;2023-04-25T04:18:57;5.90;99.90
29363;DHT22;16349;53.672;10.014;2023-04-25T04:21:24;6.00;99.90
29363;DHT22;16349;53.672;10.014;2023-04-25T04:23:53;5.90;99.90
29363;DHT22;16349;53.672;10.014;2023-04-25T04:26:22;5.90;99.90
29363;DHT22;16349;53.672;10.014;2023-04-25T04:29:07;6.00;99.90
29363;DHT22;16349;53.672;10.014;2023-04-25T04:31:47;5.90;99.90
29363;DHT22;16349;53.672;10.014;2023-04-25T04:34:15;5.90;99.90
29363;DHT22;16349;53.672;10.014;2023-04-25T04:36:42;6.00;99.90
29363;DHT22;16349;53.672;10.014;2023-04-25T04:39:11;6.00;99.90
29363;DHT22;16349;53.672;10.014;2023-04-25T04:41:49;6.00;99.90
29363;DHT22;16349;53.672;10.014;2023-04-25T04:44:42;6.00;99.90
29363;DHT22;16349;53.672;10.014;2023-04-25T04:47:25;6.10;99.90
29363;DHT22;16349;53.672;10.014;2023-04-25T04:50:14;6.10;99.90
29363;DHT22;16349;53.672;10.014;2023-04-25T04:53:05;6.10;99.90
29363;DHT22;16349;53.672;10.014;2023-04-25T04:55:43;6.10;99.90
29363;DHT22;16349;53.672;10.014;2023-04-25T04:58:24;6.20;99.90
29363;DHT22;16349;53.672;10.014;2023-04-25T05:01:07;6.10;99.90
29363;DHT22;16349;53.672;10.014;2023-04-25T05:04:10;6.20;99.90
29363;DHT22;16349;53.672;10.014;2023-04-25T05:06:57;6.20;99.90
29363;DHT22;16349;53.672;10.014;2023-04-25T05:09:42;6.20;99.90
29363;DHT22;16349;53.672;10.014;2023-04-25T05:12:19;6.20;99.90
29363;DHT22;16349;53.672;10.014;2023-04-25T05:15:11;6.20;99.90
29363;DHT22;16349;53.672;10.014;2023-04-25T05:18:02;6.10;99.90
29363;DHT22;16349;53.672;10.014;2023-04-25T05:20:40;6.10;99.90
29363;DHT22;16349;53.672;10.014;2023-04-25T05:23:19;6.00;99.90
29363;DHT22;16349;53.672;10.014;2023-04-25T05:25:58;6.00;99.90
29363;DHT22;16349;53.672;10.014;2023-04-25T05:28:47;6.00;99.90
29363;DHT22;16349;53.672;10.014;2023-04-25T05:31:36;5.90;99.90
29363;DHT22;16349;53.672;10.014;2023-04-25T05:34:12;5.90;99.90
29363;DHT22;16349;53.672;10.014;2023-04-25T05:37:02;5.90;99.90
29363;DHT22;16349;53.672;10.014;2023-04-25T05:39:30;6.00;99.90
29363;DHT22;16349;53.672;10.014;2023-04-25T05:42:30;5.90;99.90
29363;DHT22;16349;53.672;10.014;2023-04-25T05:45:07;6.00;99.90
29363;DHT22;16349;53.672;10.014;2023-04-25T05:47:43;6.00;99.90
29363;DHT22;16349;53.672;10.014;2023-04-25T05:50:16;6.00;99.90
29363;DHT22;16349;53.672;10.014;2023-04-25T05:53:03;6.00;99.90
29363;DHT22;16349;53.672;10.014;2023-04-25T05:55:42;6.00;99.90
29363;DHT22;16349;53.672;10.014;2023-04-25T05:58:19;6.00;99.90
29363;DHT22;16349;53.672;10.014;2023-04-25T06:00:47;6.10;99.90
29363;DHT22;16349;53.672;10.014;2023-04-25T06:03:15;6.10;99.90
29363;DHT22;16349;53.672;10.014;2023-04-25T06:05:42;6.20;99.90
29363;DHT22;16349;53.672;10.014;2023-04-25T06:08:09;6.30;99.90
29363;DHT22;16349;53.672;10.014;2023-04-25T06:10:37;6.30;99.90
29363;DHT22;16349;53.672;10.014;2023-04-25T06:13:05;6.30;99.90
29363;DHT22;16349;53.672;10.014;2023-04-25T06:15:34;6.30;99.90
29363;DHT22;16349;53.672;10.014;2023-04-25T06:18:00;6.30;99.90
29363;DHT22;16349;53.672;10.014;2023-04-25T06:20:29;6.40;99.90
29363;DHT22;16349;53.672;10.014;2023-04-25T06:22:58;6.50;99.90
29363;DHT22;16349;53.672;10.014;2023-04-25T06:25:44;6.50;99.90
29363;DHT22;16349;53.672;10.014;2023-04-25T06:28:11;6.60;99.90
29363;DHT22;16349;53.672;10.014;2023-04-25T06:30:39;6.60;99.90
29363;DHT22;16349;53.672;10.014;2023-04-25T06:33:10;6.60;99.90
29363;DHT22;16349;53.672;10.014;2023-04-25T06:35:40;6.60;99.90
29363;DHT22;16349;53.672;10.014;2023-04-25T06:38:10;6.70;99.90
29363;DHT22;16349;53.672;10.014;2023-04-25T06:40:39;6.70;99.90
29363;DHT22;16349;53.672;10.014;2023-04-25T06:43:08;6.70;99.90
29363;DHT22;16349;53.672;10.014;2023-04-25T06:45:48;6.70;99.90
29363;DHT22;16349;53.672;10.014;2023-04-25T06:48:16;6.70;99.90
29363;DHT22;16349;53.672;10.014;2023-04-25T06:50:43;6.80;99.90
29363;DHT22;16349;53.672;10.014;2023-04-25T06:53:11;6.70;99.90
29363;DHT22;16349;53.672;10.014;2023-04-25T06:55:42;6.70;99.90
29363;DHT22;16349;53.672;10.014;2023-04-25T06:58:18;6.70;99.90
29363;DHT22;16349;53.672;10.014;2023-04-25T07:01:04;6.70;99.90
29363;DHT22;16349;53.672;10.014;2023-04-25T07:03:31;6.50;99.90
29363;DHT22;16349;53.672;10.014;2023-04-25T07:06:04;6.50;99.90
29363;DHT22;16349;53.672;10.014;2023-04-25T07:08:32;6.40;99.90
29363;DHT22;16349;53.672;10.014;2023-04-25T07:10:59;6.40;99.90
29363;DHT22;16349;53.672;10.014;2023-04-25T07:13:26;6.30;99.90
29363;DHT22;16349;53.672;10.014;2023-04-25T07:15:53;6.00;99.90
29363;DHT22;16349;53.672;10.014;2023-04-25T07:18:21;5.80;99.90
29363;DHT22;16349;53.672;10.014;2023-04-25T07:20:49;5.70;99.90
29363;DHT22;16349;53.672;10.014;2023-04-25T07:23:18;5.70;99.90
29363;DHT22;16349;53.672;10.014;2023-04-25T07:25:46;5.80;99.90
29363;DHT22;16349;53.672;10.014;2023-04-25T07:28:17;5.90;99.90
29363;DHT22;16349;53.672;10.014;2023-04-25T07:30:44;6.00;99.90
29363;DHT22;16349;53.672;10.014;2023-04-25T07:33:11;6.10;99.90
29363;DHT22;16349;53.672;10.014;2023-04-25T07:35:39;6.20;99.90
29363;DHT22;16349;53.672;10.014;2023-04-25T07:38:06;6.20;99.90
29363;DHT22;16349;53.672;10.014;2023-04-25T07:40:35;6.30;99.90
29363;DHT22;16349;53.672;10.014;2023-04-25T07:43:05;6.30;99.90
29363;DHT22;16349;53.672;10.014;2023-04-25T07:45:42;6.50;99.90
29363;DHT22;16349;53.672;10.014;2023-04-25T07:48:10;6.70;99.90
29363;DHT22;16349;53.672;10.014;2023-04-25T07:50:38;6.80;99.90
29363;DHT22;16349;53.672;10.014;2023-04-25T07:53:04;6.80;99.90
29363;DHT22;16349;53.672;10.014;2023-04-25T07:55:39;6.90;99.90
29363;DHT22;16349;53.672;10.014;2023-04-25T07:58:17;7.10;99.90
29363;DHT22;16349;53.672;10.014;2023-04-25T08:00:48;7.20;99.90
29363;DHT22;16349;53.672;10.014;2023-04-25T08:03:33;7.40;99.90
29363;DHT22;16349;53.672;10.014;2023-04-25T08:06:03;7.40;99.90
29363;DHT22;16349;53.672;10.014;2023-04-25T08:08:33;7.40;99.90
29363;DHT22;16349;53.672;10.014;2023-04-25T08:11:01;7.40;99.90
29363;DHT22;16349;53.672;10.014;2023-04-25T08:13:28;7.30;99.90
29363;DHT22;16349;53.672;10.014;2023-04-25T08:15:54;7.00;99.90
29363;DHT22;16349;53.672;10.014;2023-04-25T08:18:21;6.50;99.90
29363;DHT22;16349;53.672;10.014;2023-04-25T08:20:49;6.30;99.90
29363;DHT22;16349;53.672;10.014;2023-04-25T08:23:16;6.20;99.90
29363;DHT22;16349;53.672;10.014;2023-04-25T08:25:51;6.20;99.90
29363;DHT22;16349;53.672;10.014;2023-04-25T08:28:22;6.20;99.90
29363;DHT22;16349;53.672;10.014;2023-04-25T08:30:50;6.30;99.90
29363;DHT22;16349;53.672;10.014;2023-04-25T08:33:18;6.40;99.90
29363;DHT22;16349;53.672;10.014;2023-04-25T08:35:55;6.40;99.90
29363;DHT22;16349;53.672;10.014;2023-04-25T08:38:22;6.50;99.90
29363;DHT22;16349;53.672;10.014;2023-04-25T08:40:50;6.60;99.90
29363;DHT22;16349;53.672;10.014;2023-04-25T08:43:21;6.70;99.90
29363;DHT22;16349;53.672;10.014;2023-04-25T08:45:50;6.80;99.90
29363;DHT22;16349;53.672;10.014;2023-04-25T08:48:42;7.00;99.90
29363;DHT22;16349;53.672;10.014;2023-04-25T08:51:15;7.30;99.90
29363;DHT22;16349;53.672;10.014;2023-04-25T08:53:42;7.50;99.90
29363;DHT22;16349;53.672;10.014;2023-04-25T08:56:12;7.70;99.90
29363;DHT22;16349;53.672;10.014;2023-04-25T08:58:44;7.80;99.90
29363;DHT22;16349;53.672;10.014;2023-04-25T09:01:11;7.80;99.90
29363;DHT22;16349;53.672;10.014;2023-04-25T09:03:47;7.80;99.90
29363;DHT22;16349;53.672;10.014;2023-04-25T09:06:14;7.80;99.90
29363;DHT22;16349;53.672;10.014;2023-04-25T09:08:42;7.70;99.90
29363;DHT22;16349;53.672;10.014;2023-04-25T09:11:10;7.80;99.90
29363;DHT22;16349;53.672;10.014;2023-04-25T09:13:37;7.80;99.90
29363;DHT22;16349;53.672;10.014;2023-04-25T09:16:27;7.80;99.90
29363;DHT22;16349;53.672;10.014;2023-04-25T09:19:21;7.80;99.90
29363;DHT22;16349;53.672;10.014;2023-04-25T09:21:49;7.80;99.90
29363;DHT22;16349;53.672;10.014;2023-04-25T09:24:16;7.90;99.90
29363;DHT22;16349;53.672;10.014;2023-04-25T09:26:42;8.00;99.90
29363;DHT22;16349;53.672;10.014;2023-04-25T09:29:10;8.10;99.90
29363;DHT22;16349;53.672;10.014;2023-04-25T09:31:41;8.20;99.90
29363;DHT22;16349;53.672;10.014;2023-04-25T09:34:10;8.30;99.90
29363;DHT22;16349;53.672;10.014;2023-04-25T09:36:44;8.40;99.90
29363;DHT22;16349;53.672;10.014;2023-04-25T09:39:21;8.50;99.90
29363;DHT22;16349;53.672;10.014;2023-04-25T09:41:57;8.40;99.90
29363;DHT22;16349;53.672;10.014;2023-04-25T09:44:24;8.30;99.90
29363;DHT22;16349;53.672;10.014;2023-04-25T09:46:55;7.90;99.90
29363;DHT22;16349;53.672;10.014;2023-04-25T09:49:26;7.80;99.90
29363;DHT22;16349;53.672;10.014;2023-04-25T09:52:09;7.80;99.90
29363;DHT22;16349;53.672;10.014;2023-04-25T09:54:54;7.80;99.90
29363;DHT22;16349;53.672;10.014;2023-04-25T09:57:29;7.80;99.90
29363;DHT22;16349;53.672;10.014;2023-04-25T10:00:00;7.80;99.90
29363;DHT22;16349;53.672;10.014;2023-04-25T10:02:42;7.90;99.90
29363;DHT22;16349;53.672;10.014;2023-04-25T10:05:25;8.00;99.90
29363;DHT22;16349;53.672;10.014;2023-04-25T10:07:54;8.30;99.90
29363;DHT22;16349;53.672;10.014;2023-04-25T10:10:22;8.40;99.90
29363;DHT22;16349;53.672;10.014;2023-04-25T10:12:51;8.60;99.90
29363;DHT22;16349;53.672;10.014;2023-04-25T10:15:19;8.60;99.90
29363;DHT22;16349;53.672;10.014;2023-04-25T10:17:48;8.70;99.90
29363;DHT22;16349;53.672;10.014;2023-04-25T10:20:16;8.80;99.90
29363;DHT22;16349;53.672;10.014;2023-04-25T10:22:45;8.80;99.90
29363;DHT22;16349;53.672;10.014;2023-04-25T10:25:14;8.90;99.90
29363;DHT22;16349;53.672;10.014;2023-04-25T10:27:41;8.90;99.90
29363;DHT22;16349;53.672;10.014;2023-04-25T10:30:10;8.90;99.90
29363;DHT22;16349;53.672;10.014;2023-04-25T10:32:38;8.90;99.90
29363;DHT22;16349;53.672;10.014;2023-04-25T10:35:14;8.90;99.90
29363;DHT22;16349;53.672;10.014;2023-04-25T10:37:58;9.00;99.90
29363;DHT22;16349;53.672;10.014;2023-04-25T10:40:25;9.20;99.90
29363;DHT22;16349;53.672;10.014;2023-04-25T10:42:52;9.40;99.90
29363;DHT22;16349;53.672;10.014;2023-04-25T10:45:20;9.40;99.90
29363;DHT22;16349;53.672;10.014;2023-04-25T10:47:47;9.30;99.90
29363;DHT22;16349;53.672;10.014;2023-04-25T10:50:15;9.20;99.90
29363;DHT22;16349;53.672;10.014;2023-04-25T10:52:42;8.80;99.90
29363;DHT22;16349;53.672;10.014;2023-04-25T10:55:10;8.70;99.90
29363;DHT22;16349;53.672;10.014;2023-04-25T10:57:39;8.70;99.90
29363;DHT22;16349;53.672;10.014;2023-04-25T11:00:09;8.70;99.90
29363;DHT22;16349;53.672;10.014;2023-04-25T11:02:40;8.60;99.90
29363;DHT22;16349;53.672;10.014;2023-04-25T11:05:09;8.50;99.90
29363;DHT22;16349;53.672;10.014;2023-04-25T11:07:48;8.30;99.90
29363;DHT22;16349;53.672;10.014;2023-04-25T11:10:17;8.30;99.90
29363;DHT22;16349;53.672;10.014;2023-04-25T11:12:44;8.20;99.90
29363;DHT22;16349;53.672;10.014;2023-04-25T11:15:11;8.00;99.90
29363;DHT22;16349;53.672;10.014;2023-04-25T11:17:39;8.00;99.90
29363;DHT22;16349;53.672;10.014;2023-04-25T11:20:07;8.00;99.90
29363;DHT22;16349;53.672;10.014;2023-04-25T11:22:38;8.10;99.90
29363;DHT22;16349;53.672;10.014;2023-04-25T11:25:09;8.20;99.90
29363;DHT22;16349;53.672;10.014;2023-04-25T11:27:49;8.30;99.90
29363;DHT22;16349;53.672;10.014;2023-04-25T11:30:17;8.30;99.90
29363;DHT22;16349;53.672;10.014;2023-04-25T11:32:43;8.30;99.90
29363;DHT22;16349;53.672;10.014;2023-04-25T11:35:11;8.50;99.90
29363;DHT22;16349;53.672;10.014;2023-04-25T11:37:38;8.70;99.90
29363;DHT22;16349;53.672;10.014;2023-04-25T11:40:08;8.70;99.90
29363;DHT22;16349;53.672;10.014;2023-04-25T11:42:37;9.00;99.90
29363;DHT22;16349;53.672;10.014;2023-04-25T11:45:06;9.30;99.90
29363;DHT22;16349;53.672;10.014;2023-04-25T11:47:33;9.50;99.90
29363;DHT22;16349;53.672;10.014;2023-04-25T11:50:00;9.40;99.90
29363;DHT22;16349;53.672;10.014;2023-04-25T11:52:38;9.30;99.90
29363;DHT22;16349;53.672;10.014;2023-04-25T11:55:08;9.20;99.90
29363;DHT22;16349;53.672;10.014;2023-04-25T11:57:38;9.10;99.90
29363;DHT22;16349;53.672;10.014;2023-04-25T12:00:07;9.30;99.90
29363;DHT22;16349;53.672;10.014;2023-04-25T12:02:39;9.50;99.90
29363;DHT22;16349;53.672;10.014;2023-04-25T12:05:07;9.60;99.90
29363;DHT22;16349;53.672;10.014;2023-04-25T12:07:34;9.90;99.90
29363;DHT22;16349;53.672;10.014;2023-04-25T12:10:06;10.10;99.90
29363;DHT22;16349;53.672;10.014;2023-04-25T12:12:34;10.10;99.90
29363;DHT22;16349;53.672;10.014;2023-04-25T12:15:14;9.90;99.90
29363;DHT22;16349;53.672;10.014;2023-04-25T12:17:45;9.80;99.90
29363;DHT22;16349;53.672;10.014;2023-04-25T12:20:13;9.90;99.90
29363;DHT22;16349;53.672;10.014;2023-04-25T12:22:41;10.10;99.90
29363;DHT22;16349;53.672;10.014;2023-04-25T12:25:11;10.20;99.90
29363;DHT22;16349;53.672;10.014;2023-04-25T12:27:39;10.30;99.90
29363;DHT22;16349;53.672;10.014;2023-04-25T12:30:08;10.30;99.90
29363;DHT22;16349;53.672;10.014;2023-04-25T12:32:36;10.10;99.90
29363;DHT22;16349;53.672;10.014;2023-04-25T12:35:03;10.00;99.90
29363;DHT22;16349;53.672;10.014;2023-04-25T12:37:31;10.10;99.90
29363;DHT22;16349;53.672;10.014;2023-04-25T12:39:57;10.10;99.90
29363;DHT22;16349;53.672;10.014;2023-04-25T12:42:25;10.30;99.90
29363;DHT22;16349;53.672;10.014;2023-04-25T12:44:52;10.30;99.90
29363;DHT22;16349;53.672;10.014;2023-04-25T12:47:19;10.00;99.90
29363;DHT22;16349;53.672;10.014;2023-04-25T12:49:46;9.70;99.90
29363;DHT22;16349;53.672;10.014;2023-04-25T12:52:13;9.40;99.90
29363;DHT22;16349;53.672;10.014;2023-04-25T12:54:40;9.00;99.90
29363;DHT22;16349;53.672;10.014;2023-04-25T12:57:07;8.70;99.90
29363;DHT22;16349;53.672;10.014;2023-04-25T12:59:35;8.60;99.90
29363;DHT22;16349;53.672;10.014;2023-04-25T13:02:02;8.70;99.90
29363;DHT22;16349;53.672;10.014;2023-04-25T13:04:29;8.80;99.90
29363;DHT22;16349;53.672;10.014;2023-04-25T13:06:56;8.90;99.90
29363;DHT22;16349;53.672;10.014;2023-04-25T13:09:22;9.00;99.90
29363;DHT22;16349;53.672;10.014;2023-04-25T13:11:49;9.30;99.90
29363;DHT22;16349;53.672;10.014;2023-04-25T13:14:15;9.40;99.90
29363;DHT22;16349;53.672;10.014;2023-04-25T13:16:43;9.20;99.90
29363;DHT22;16349;53.672;10.014;2023-04-25T13:19:11;9.10;99.90
29363;DHT22;16349;53.672;10.014;2023-04-25T13:21:38;9.10;99.90
29363;DHT22;16349;53.672;10.014;2023-04-25T13:24:05;8.80;99.90
29363;DHT22;16349;53.672;10.014;2023-04-25T13:26:33;8.70;99.90
29363;DHT22;16349;53.672;10.014;2023-04-25T13:29:00;8.90;99.90
29363;DHT22;16349;53.672;10.014;2023-04-25T13:31:29;9.40;99.90
29363;DHT22;16349;53.672;10.014;2023-04-25T13:33:57;9.60;99.90
29363;DHT22;16349;53.672;10.014;2023-04-25T13:36:24;9.80;99.90
29363;DHT22;16349;53.672;10.014;2023-04-25T13:38:51;10.30;99.90
29363;DHT22;16349;53.672;10.014;2023-04-25T13:41:17;10.50;99.90
29363;DHT22;16349;53.672;10.014;2023-04-25T13:43:46;10.20;99.90
29363;DHT22;16349;53.672;10.014;2023-04-25T13:46:14;9.80;99.90
29363;DHT22;16349;53.672;10.014;2023-04-25T13:48:41;9.00;99.90
29363;DHT22;16349;53.672;10.014;2023-04-25T13:51:14;8.40;99.90
29363;DHT22;16349;53.672;10.014;2023-04-25T13:53:42;8.20;99.90
29363;DHT22;16349;53.672;10.014;2023-04-25T13:56:10;8.60;99.90
29363;DHT22;16349;53.672;10.014;2023-04-25T13:58:37;9.20;99.90
29363;DHT22;16349;53.672;10.014;2023-04-25T14:01:04;9.20;99.90
29363;DHT22;16349;53.672;10.014;2023-04-25T14:03:31;9.30;99.90
29363;DHT22;16349;53.672;10.014;2023-04-25T14:05:58;9.70;99.90
29363;DHT22;16349;53.672;10.014;2023-04-25T14:08:27;10.20;99.90
29363;DHT22;16349;53.672;10.014;2023-04-25T14:10:54;10.30;99.90
29363;DHT22;16349;53.672;10.014;2023-04-25T14:13:21;10.80;99.90
29363;DHT22;16349;53.672;10.014;2023-04-25T14:15:48;11.10;99.90
29363;DHT22;16349;53.672;10.014;2023-04-25T14:18:16;11.30;99.90
29363;DHT22;16349;53.672;10.014;2023-04-25T14:20:43;11.40;99.90
29363;DHT22;16349;53.672;10.014;2023-04-25T14:23:10;11.30;99.90
29363;DHT22;16349;53.672;10.014;2023-04-25T14:25:38;11.00;99.90
29363;DHT22;16349;53.672;10.014;2023-04-25T14:28:05;10.80;99.90
29363;DHT22;16349;53.672;10.014;2023-04-25T14:30:32;11.10;99.90
29363;DHT22;16349;53.672;10.014;2023-04-25T14:32:59;10.80;99.90
29363;DHT22;16349;53.672;10.014;2023-04-25T14:35:26;10.90;99.90
29363;DHT22;16349;53.672;10.014;2023-04-25T14:37:54;11.00;99.90
29363;DHT22;16349;53.672;10.014;2023-04-25T14:40:21;10.60;99.90
29363;DHT22;16349;53.672;10.014;2023-04-25T14:42:49;10.30;99.90
29363;DHT22;16349;53.672;10.014;2023-04-25T14:45:16;10.20;99.60
29363;DHT22;16349;53.672;10.014;2023-04-25T14:47:43;10.70;98.80
29363;DHT22;16349;53.672;10.014;2023-04-25T14:50:10;10.90;98.80
29363;DHT22;16349;53.672;10.014;2023-04-25T14:52:37;10.60;99.50
29363;DHT22;16349;53.672;10.014;2023-04-25T14:55:04;10.30;99.90
29363;DHT22;16349;53.672;10.014;2023-04-25T14:57:33;10.40;99.90
29363;DHT22;16349;53.672;10.014;2023-04-25T15:00:03;10.90;99.70
29363;DHT22;16349;53.672;10.014;2023-04-25T15:02:36;10.50;99.50
29363;DHT22;16349;53.672;10.014;2023-04-25T15:05:03;10.00;99.90
29363;DHT22;16349;53.672;10.014;2023-04-25T15:07:30;9.50;99.90
29363;DHT22;16349;53.672;10.014;2023-04-25T15:10:17;9.00;99.90
29363;DHT22;16349;53.672;10.014;2023-04-25T15:12:44;8.40;99.90
29363;DHT22;16349;53.672;10.014;2023-04-25T15:15:12;8.20;99.90
29363;DHT22;16349;53.672;10.014;2023-04-25T15:17:41;8.10;99.90
29363;DHT22;16349;53.672;10.014;2023-04-25T15:20:09;8.30;99.90
29363;DHT22;16349;53.672;10.014;2023-04-25T15:22:38;8.40;99.90
29363;DHT22;16349;53.672;10.014;2023-04-25T15:25:06;8.60;99.90
29363;DHT22;16349;53.672;10.014;2023-04-25T15:27:33;8.60;99.90
29363;DHT22;16349;53.672;10.014;2023-04-25T15:30:04;9.20;99.90
29363;DHT22;16349;53.672;10.014;2023-04-25T15:32:34;9.40;99.90
29363;DHT22;16349;53.672;10.014;2023-04-25T15:35:03;9.80;99.90
29363;DHT22;16349;53.672;10.014;2023-04-25T15:37:31;9.50;99.90
29363;DHT22;16349;53.672;10.014;2023-04-25T15:40:01;9.30;99.90
29363;DHT22;16349;53.672;10.014;2023-04-25T15:42:30;9.10;99.90
29363;DHT22;16349;53.672;10.014;2023-04-25T15:44:57;8.90;99.90
29363;DHT22;16349;53.672;10.014;2023-04-25T15:47:23;9.00;99.90
29363;DHT22;16349;53.672;10.014;2023-04-25T15:49:52;9.90;99.90